Time;durP1;ratioP1;P1;durP2;ratioP2;P2;SDS_P1;SDS_P2;PMS_P1;PMS_P2;Temp;Humidity;BMP_temperature;BMP_pressure;BME280_temperature;BME280_humidity;BME280_pressure;Samples;Min_cycle;Max_cycle;Signal;HPM_P1;HPM_P2
2022/06/21 00:02:11;;;;;;;;;;;24.60;99.90;;;;;;5032595;28;20430;-81
2022/06/21 00:04:37;;;;;;;;;;;24.70;99.90;;;;;;5032365;28;19948;-82
2022/06/21 00:07:03;;;;;;;;;;;24.60;99.90;;;;;;5031152;28;19905;-81
2022/06/21 00:09:29;;;;;;;;;;;24.60;99.90;;;;;;5032473;28;19966;-81
2022/06/21 00:11:54;;;;;;;;;;;24.60;99.90;;;;;;5031282;28;20269;-81
2022/06/21 00:14:20;;;;;;;;;;;24.70;99.90;;;;;;5032518;28;19911;-81
2022/06/21 00:16:46;;;;;;;;;;;24.70;99.90;;;;;;5032619;28;19905;-79
2022/06/21 00:19:17;;;;;;;;;;;24.70;99.90;;;;;;5032575;28;19928;-80
2022/06/21 00:21:42;;;;;;;;;;;24.70;99.90;;;;;;5032340;28;19905;-80
2022/06/21 00:24:10;;;;;;;;;;;24.70;99.90;;;;;;5032150;28;19995;-81
2022/06/21 00:26:36;;;;;;;;;;;24.60;99.90;;;;;;5033883;28;19936;-81
2022/06/21 00:29:02;;;;;;;;;;;24.60;99.90;;;;;;5034813;28;19960;-82
2022/06/21 00:31:29;;;;;;;;;;;24.60;99.90;;;;;;5035860;28;19905;-81
2022/06/21 00:33:55;;;;;;;;;;;24.60;99.90;;;;;;5034908;28;19905;-82
2022/06/21 00:36:25;;;;;;;;;;;24.60;99.90;;;;;;5035928;28;19905;-81
2022/06/21 00:38:52;;;;;;;;;;;24.60;99.90;;;;;;5034628;28;19919;-81
2022/06/21 00:41:20;;;;;;;;;;;24.60;99.90;;;;;;5034614;28;19959;-81
2022/06/21 00:43:48;;;;;;;;;;;24.60;99.90;;;;;;5035676;28;19905;-81
2022/06/21 00:46:22;;;;;;;;;;;24.60;99.90;;;;;;5035769;28;19912;-82
2022/06/21 00:48:49;;;;;;;;;;;24.60;99.90;;;;;;5035672;28;19912;-79
2022/06/21 00:51:15;;;;;;;;;;;24.70;99.90;;;;;;5034138;28;20294;-82
2022/06/21 00:53:45;;;;;;;;;;;24.70;99.90;;;;;;5035586;28;19905;-82
2022/06/21 00:56:11;;;;;;;;;;;24.70;99.90;;;;;;5035224;28;19923;-82
2022/06/21 00:58:36;;;;;;;;;;;24.70;99.90;;;;;;5035556;28;19909;-81
2022/06/21 01:01:03;;;;;;;;;;;24.70;99.90;;;;;;5033938;28;19905;-81
2022/06/21 01:03:36;;;;;;;;;;;24.80;99.90;;;;;;5033865;28;19939;-81
2022/06/21 01:06:10;;;;;;;;;;;24.90;99.90;;;;;;5029413;28;19951;-82
2022/06/21 01:08:39;;;;;;;;;;;24.90;99.90;;;;;;5035279;28;19905;-81
2022/06/21 01:11:08;;;;;;;;;;;24.90;99.90;;;;;;5034909;28;19913;-81
2022/06/21 01:13:37;;;;;;;;;;;24.90;99.90;;;;;;5035357;28;20283;-81
2022/06/21 01:16:03;;;;;;;;;;;24.90;99.90;;;;;;5033888;28;19952;-81
2022/06/21 01:18:28;;;;;;;;;;;24.90;99.90;;;;;;5033885;28;19951;-80
2022/06/21 01:20:55;;;;;;;;;;;24.90;99.90;;;;;;5035464;28;19948;-81
2022/06/21 01:23:39;;;;;;;;;;;24.90;99.90;;;;;;5034970;28;19995;-80
2022/06/21 01:26:23;;;;;;;;;;;24.90;99.90;;;;;;5035251;28;19970;-80
2022/06/21 01:28:50;;;;;;;;;;;24.90;99.90;;;;;;5035062;28;19909;-82
2022/06/21 01:31:16;;;;;;;;;;;24.90;99.90;;;;;;5033411;28;19915;-81
2022/06/21 01:33:42;;;;;;;;;;;24.90;99.90;;;;;;5033552;28;19904;-82
2022/06/21 01:36:28;;;;;;;;;;;24.90;99.90;;;;;;5034745;28;19905;-80
2022/06/21 01:38:56;;;;;;;;;;;24.90;99.90;;;;;;5033451;28;19905;-81
2022/06/21 01:41:24;;;;;;;;;;;24.90;99.90;;;;;;5034615;28;19981;-80
2022/06/21 01:43:53;;;;;;;;;;;24.80;99.90;;;;;;5034639;28;19905;-79
2022/06/21 01:46:20;;;;;;;;;;;24.80;99.90;;;;;;5034768;28;19905;-81
2022/06/21 01:48:48;;;;;;;;;;;24.80;99.90;;;;;;5034563;28;20004;-81
2022/06/21 01:51:19;;;;;;;;;;;24.80;99.90;;;;;;5034623;28;19912;-81
2022/06/21 01:53:45;;;;;;;;;;;24.80;99.90;;;;;;5034151;28;20252;-81
2022/06/21 01:56:16;;;;;;;;;;;24.80;99.90;;;;;;5034573;28;20059;-82
2022/06/21 01:58:45;;;;;;;;;;;24.70;99.90;;;;;;5034465;28;19928;-81
2022/06/21 02:01:22;;;;;;;;;;;24.80;99.90;;;;;;5034379;28;19920;-80
2022/06/21 02:03:50;;;;;;;;;;;24.80;99.90;;;;;;5034235;28;19913;-81
2022/06/21 02:06:16;;;;;;;;;;;24.70;99.90;;;;;;5034270;28;19905;-80
2022/06/21 02:08:44;;;;;;;;;;;24.70;99.90;;;;;;5034166;28;19947;-81
2022/06/21 02:11:13;;;;;;;;;;;24.70;99.90;;;;;;5034405;28;19917;-82
2022/06/21 02:13:44;;;;;;;;;;;24.70;99.90;;;;;;5033061;28;19905;-81
2022/06/21 02:16:13;;;;;;;;;;;24.70;99.90;;;;;;5034392;28;19905;-81
2022/06/21 02:18:41;;;;;;;;;;;24.70;99.90;;;;;;5033784;28;20000;-81
2022/06/21 02:21:12;;;;;;;;;;;24.70;99.90;;;;;;5033794;28;19975;-81
2022/06/21 02:23:38;;;;;;;;;;;24.60;99.90;;;;;;5033812;28;19932;-81
2022/06/21 02:26:04;;;;;;;;;;;24.70;99.90;;;;;;5032381;28;20278;-79
2022/06/21 02:28:29;;;;;;;;;;;24.60;99.90;;;;;;5033704;28;19909;-82
2022/06/21 02:30:57;;;;;;;;;;;24.60;99.90;;;;;;5033661;28;19913;-81
2022/06/21 02:33:24;;;;;;;;;;;24.60;99.90;;;;;;5033645;28;19928;-81
2022/06/21 02:35:58;;;;;;;;;;;24.60;99.90;;;;;;5033577;28;19920;-81
2022/06/21 02:38:26;;;;;;;;;;;24.60;99.90;;;;;;5033526;28;19909;-81
2022/06/21 02:41:02;;;;;;;;;;;24.50;99.90;;;;;;5032222;28;20271;-80
2022/06/21 02:43:34;;;;;;;;;;;24.50;99.90;;;;;;5033665;28;20278;-81
2022/06/21 02:46:03;;;;;;;;;;;24.50;99.90;;;;;;5032259;28;19905;-81
2022/06/21 02:48:30;;;;;;;;;;;24.50;99.90;;;;;;5033336;28;19912;-81
2022/06/21 02:50:59;;;;;;;;;;;24.50;99.90;;;;;;5031258;28;19980;-80
2022/06/21 02:53:28;;;;;;;;;;;24.50;99.90;;;;;;5033664;28;19959;-81
2022/06/21 02:56:06;;;;;;;;;;;24.40;99.90;;;;;;5033233;28;20286;-81
2022/06/21 02:58:35;;;;;;;;;;;24.40;99.90;;;;;;5033232;28;20009;-80
2022/06/21 03:01:03;;;;;;;;;;;24.40;99.90;;;;;;5033252;28;19905;-81
2022/06/21 03:03:30;;;;;;;;;;;24.40;99.90;;;;;;5032813;28;20330;-81
2022/06/21 03:05:57;;;;;;;;;;;24.40;99.90;;;;;;5032883;28;19949;-80
2022/06/21 03:08:23;;;;;;;;;;;24.30;99.90;;;;;;5032056;28;19905;-81
2022/06/21 03:10:50;;;;;;;;;;;24.30;99.90;;;;;;5033233;28;19960;-80
2022/06/21 03:13:18;;;;;;;;;;;24.30;99.90;;;;;;5033389;28;19905;-81
2022/06/21 03:15:46;;;;;;;;;;;24.30;99.90;;;;;;5033171;28;20278;-81
2022/06/21 03:18:13;;;;;;;;;;;24.30;99.90;;;;;;5033078;28;19920;-82
2022/06/21 03:20:40;;;;;;;;;;;24.30;99.90;;;;;;5033191;28;20248;-81
2022/06/21 03:23:05;;;;;;;;;;;24.30;99.90;;;;;;5032770;28;20433;-81
2022/06/21 03:25:34;;;;;;;;;;;24.30;99.90;;;;;;5032874;28;19905;-81
2022/06/21 03:28:01;;;;;;;;;;;24.30;99.90;;;;;;5033024;28;19963;-81
2022/06/21 03:30:35;;;;;;;;;;;24.30;99.90;;;;;;5032533;28;19959;-81
2022/06/21 03:33:01;;;;;;;;;;;24.20;99.90;;;;;;5032530;28;19909;-81
2022/06/21 03:35:29;;;;;;;;;;;24.20;99.90;;;;;;5031886;28;20355;-82
2022/06/21 03:37:54;;;;;;;;;;;24.20;99.90;;;;;;5032628;28;19938;-81
2022/06/21 03:43:26;;;;;;;;;;;24.20;99.90;;;;;;5033010;28;19912;-81
2022/06/21 03:45:53;;;;;;;;;;;24.10;99.90;;;;;;5033238;28;19905;-81
2022/06/21 03:48:26;;;;;;;;;;;24.10;99.90;;;;;;5033003;28;20375;-80
2022/06/21 03:50:55;;;;;;;;;;;24.20;99.90;;;;;;5033003;28;19922;-81
2022/06/21 03:53:24;;;;;;;;;;;24.20;99.90;;;;;;5033025;28;19905;-81
2022/06/21 03:55:57;;;;;;;;;;;24.20;99.90;;;;;;5032599;28;20268;-80
2022/06/21 03:58:32;;;;;;;;;;;24.20;99.90;;;;;;5032889;28;19912;-81
2022/06/21 04:00:58;;;;;;;;;;;24.30;99.90;;;;;;5032710;28;19905;-81
2022/06/21 04:03:30;;;;;;;;;;;24.30;99.90;;;;;;5036133;28;19948;-81
2022/06/21 04:06:01;;;;;;;;;;;24.40;99.90;;;;;;5036940;28;20003;-81
2022/06/21 04:08:30;;;;;;;;;;;24.50;99.90;;;;;;5036958;28;19905;-81
2022/06/21 04:10:58;;;;;;;;;;;24.50;99.90;;;;;;5036520;28;19919;-81
2022/06/21 04:13:31;;;;;;;;;;;24.70;99.90;;;;;;5036911;28;19913;-81
2022/06/21 04:16:04;;;;;;;;;;;24.90;99.90;;;;;;5036719;28;19909;-81
2022/06/21 04:18:43;;;;;;;;;;;25.10;99.90;;;;;;5036461;28;20299;-81
2022/06/21 04:21:21;;;;;;;;;;;25.20;99.90;;;;;;5036536;28;19905;-81
2022/06/21 04:23:52;;;;;;;;;;;25.30;99.90;;;;;;5036419;28;20367;-81
2022/06/21 04:26:26;;;;;;;;;;;25.50;99.90;;;;;;5036510;28;20274;-81
2022/06/21 04:28:55;;;;;;;;;;;25.70;99.90;;;;;;5036342;28;20359;-80
2022/06/21 04:31:33;;;;;;;;;;;25.80;99.90;;;;;;5036519;28;20439;-81
2022/06/21 04:34:13;;;;;;;;;;;26.00;99.90;;;;;;5036323;28;19905;-80
2022/06/21 04:36:42;;;;;;;;;;;26.10;99.90;;;;;;5036261;28;19905;-81
2022/06/21 04:39:11;;;;;;;;;;;26.30;99.90;;;;;;5036225;28;19905;-78
2022/06/21 04:41:41;;;;;;;;;;;26.50;99.90;;;;;;5036130;28;19912;-82
2022/06/21 04:44:13;;;;;;;;;;;26.70;99.90;;;;;;5036464;28;19966;-81
2022/06/21 04:47:18;;;;;;;;;;;26.80;99.90;;;;;;5036116;28;19912;-82
2022/06/21 04:49:46;;;;;;;;;;;27.00;99.90;;;;;;5033821;28;19913;-81
2022/06/21 04:52:17;;;;;;;;;;;27.10;99.90;;;;;;5033983;28;20008;-82
2022/06/21 04:54:43;;;;;;;;;;;27.40;99.90;;;;;;5034681;28;20000;-82
2022/06/21 04:57:13;;;;;;;;;;;27.70;99.90;;;;;;5035886;28;20386;-82
2022/06/21 04:59:45;;;;;;;;;;;28.10;99.90;;;;;;5035897;28;20367;-81
2022/06/21 05:02:30;;;;;;;;;;;28.50;99.90;;;;;;5036132;28;19912;-82
2022/06/21 05:05:02;;;;;;;;;;;28.80;99.90;;;;;;5034929;28;19913;-82
2022/06/21 05:07:29;;;;;;;;;;;29.20;99.90;;;;;;5035942;28;20386;-82
2022/06/21 05:09:56;;;;;;;;;;;29.40;99.90;;;;;;5035753;28;19920;-82
2022/06/21 05:12:27;;;;;;;;;;;29.70;99.90;;;;;;5035321;28;19912;-82
2022/06/21 05:14:56;;;;;;;;;;;30.20;99.90;;;;;;5035516;28;19905;-82
2022/06/21 05:17:22;;;;;;;;;;;30.50;99.90;;;;;;5035598;28;20022;-82
2022/06/21 05:19:51;;;;;;;;;;;30.80;99.00;;;;;;5035604;28;19948;-80
2022/06/21 05:22:16;;;;;;;;;;;31.10;98.60;;;;;;5035538;28;19906;-82
2022/06/21 05:24:43;;;;;;;;;;;31.40;98.00;;;;;;5034466;28;19908;-82
2022/06/21 05:27:11;;;;;;;;;;;31.60;96.90;;;;;;5035149;28;19951;-81
2022/06/21 05:29:57;;;;;;;;;;;31.80;96.40;;;;;;5035201;28;19909;-82
2022/06/21 05:32:26;;;;;;;;;;;32.10;95.90;;;;;;5035184;28;19905;-81
2022/06/21 05:34:58;;;;;;;;;;;32.20;95.30;;;;;;5035424;28;19955;-82
2022/06/21 05:37:34;;;;;;;;;;;32.40;94.90;;;;;;5035092;28;19909;-81
2022/06/21 05:40:04;;;;;;;;;;;32.70;94.20;;;;;;5034829;28;20009;-82
2022/06/21 05:42:29;;;;;;;;;;;32.90;93.40;;;;;;5035099;28;19951;-81
2022/06/21 05:45:15;;;;;;;;;;;33.10;93.00;;;;;;5035210;28;20278;-81
2022/06/21 05:47:47;;;;;;;;;;;33.10;92.60;;;;;;5034556;28;19959;-82
2022/06/21 05:50:15;;;;;;;;;;;33.10;92.60;;;;;;5034367;28;19917;-82
2022/06/21 05:52:44;;;;;;;;;;;33.30;91.70;;;;;;5034949;28;19905;-82
2022/06/21 05:55:35;;;;;;;;;;;33.30;91.90;;;;;;5034743;28;19915;-82
2022/06/21 05:58:03;;;;;;;;;;;33.60;91.60;;;;;;5034199;28;19967;-82
2022/06/21 06:00:29;;;;;;;;;;;33.80;90.60;;;;;;5034113;28;19905;-81
2022/06/21 06:02:58;;;;;;;;;;;34.00;90.30;;;;;;5034667;28;20302;-81
2022/06/21 06:05:35;;;;;;;;;;;34.40;90.00;;;;;;5034932;28;19915;-81
2022/06/21 06:08:05;;;;;;;;;;;34.80;88.40;;;;;;5034737;28;19909;-82
2022/06/21 06:10:31;;;;;;;;;;;34.70;87.50;;;;;;5034436;28;19963;-82
2022/06/21 06:13:01;;;;;;;;;;;34.90;86.60;;;;;;5034612;28;19912;-81
2022/06/21 06:15:28;;;;;;;;;;;35.00;86.80;;;;;;5034545;28;19996;-81
2022/06/21 06:17:57;;;;;;;;;;;35.20;85.70;;;;;;5034426;28;19909;-83
2022/06/21 06:20:32;;;;;;;;;;;35.60;85.00;;;;;;5034364;28;19905;-82
2022/06/21 06:23:01;;;;;;;;;;;35.90;83.70;;;;;;5034318;28;19905;-80
2022/06/21 06:25:36;;;;;;;;;;;36.20;81.90;;;;;;5033437;28;20363;-82
2022/06/21 06:28:24;;;;;;;;;;;36.40;80.10;;;;;;5033924;28;20432;-84
2022/06/21 06:31:04;;;;;;;;;;;36.70;79.20;;;;;;5033003;28;19919;-83
2022/06/21 06:33:33;;;;;;;;;;;36.80;78.20;;;;;;5034094;28;19909;-83
2022/06/21 06:36:02;;;;;;;;;;;37.00;77.50;;;;;;5033744;28;19951;-83
2022/06/21 06:38:28;;;;;;;;;;;37.30;76.40;;;;;;5034020;28;20004;-82
2022/06/21 06:40:56;;;;;;;;;;;37.30;75.60;;;;;;5034098;28;19985;-82
2022/06/21 06:43:27;;;;;;;;;;;36.80;76.10;;;;;;5033799;28;19931;-81
2022/06/21 06:45:55;;;;;;;;;;;35.90;77.00;;;;;;5033766;28;19906;-82
2022/06/21 06:48:24;;;;;;;;;;;35.40;78.00;;;;;;5033370;28;19941;-82
2022/06/21 06:51:03;;;;;;;;;;;35.00;79.30;;;;;;5033514;28;19913;-82
2022/06/21 06:53:36;;;;;;;;;;;34.50;80.40;;;;;;5033717;28;19905;-82
2022/06/21 06:56:03;;;;;;;;;;;33.80;82.30;;;;;;5033515;28;19944;-85
2022/06/21 06:58:29;;;;;;;;;;;33.20;83.60;;;;;;5032241;28;19932;-82
2022/06/21 07:01:00;;;;;;;;;;;33.00;84.30;;;;;;5032150;28;20351;-82
2022/06/21 07:03:36;;;;;;;;;;;32.70;84.90;;;;;;5033083;28;19946;-82
2022/06/21 07:06:06;;;;;;;;;;;32.50;85.80;;;;;;5033162;28;19912;-82
2022/06/21 07:08:54;;;;;;;;;;;32.40;86.70;;;;;;5033046;28;19966;-81
2022/06/21 07:11:26;;;;;;;;;;;32.10;87.80;;;;;;5033222;28;19913;-82
2022/06/21 07:13:52;;;;;;;;;;;32.00;87.80;;;;;;5033205;28;19905;-82
2022/06/21 07:16:21;;;;;;;;;;;32.00;88.50;;;;;;5033064;28;20418;-82
2022/06/21 07:18:48;;;;;;;;;;;32.30;88.50;;;;;;5032641;28;19905;-82
2022/06/21 07:21:14;;;;;;;;;;;32.50;89.00;;;;;;5032637;28;19913;-82
2022/06/21 07:23:40;;;;;;;;;;;32.70;88.30;;;;;;5032665;28;20325;-82
2022/06/21 07:26:09;;;;;;;;;;;32.80;88.40;;;;;;5032991;28;19988;-82
2022/06/21 07:28:47;;;;;;;;;;;32.90;89.40;;;;;;5032504;28;19905;-82
2022/06/21 07:31:22;;;;;;;;;;;32.60;90.00;;;;;;5032953;28;19913;-82
2022/06/21 07:33:55;;;;;;;;;;;32.40;90.30;;;;;;5031375;28;19944;-82
2022/06/21 07:36:24;;;;;;;;;;;32.30;90.80;;;;;;5032231;28;19996;-81
2022/06/21 07:38:49;;;;;;;;;;;32.00;91.20;;;;;;5032541;28;19905;-82
2022/06/21 07:41:20;;;;;;;;;;;32.00;91.70;;;;;;5032400;28;19928;-82
2022/06/21 07:43:47;;;;;;;;;;;32.00;92.00;;;;;;5032419;28;19927;-81
2022/06/21 07:46:16;;;;;;;;;;;31.90;92.10;;;;;;5033041;28;19905;-79
2022/06/21 07:48:52;;;;;;;;;;;31.50;92.80;;;;;;5031693;28;19992;-80
2022/06/21 07:51:20;;;;;;;;;;;31.50;93.10;;;;;;5031992;28;19917;-81
2022/06/21 07:53:55;;;;;;;;;;;31.40;93.20;;;;;;5031961;28;19940;-81
2022/06/21 07:56:23;;;;;;;;;;;31.30;93.80;;;;;;5035598;28;19943;-81
2022/06/21 07:58:55;;;;;;;;;;;31.10;94.30;;;;;;5051796;28;19905;-82
2022/06/21 08:07:07;;;;;;;;;;;31.40;94.60;;;;;;5052717;28;19912;-79
2022/06/21 08:09:51;;;;;;;;;;;31.40;94.90;;;;;;5051450;28;19909;-78
2022/06/21 08:12:17;;;;;;;;;;;31.50;95.00;;;;;;5051214;28;20397;-77
2022/06/21 08:14:43;;;;;;;;;;;31.50;95.30;;;;;;5050333;28;19909;-77
2022/06/21 08:17:17;;;;;;;;;;;31.60;95.20;;;;;;5054116;28;19905;-80
2022/06/21 08:19:50;;;;;;;;;;;31.40;95.40;;;;;;5051907;28;19912;-78
2022/06/21 08:22:18;;;;;;;;;;;31.50;95.50;;;;;;5048529;28;19904;-78
2022/06/21 08:24:57;;;;;;;;;;;31.70;95.60;;;;;;5051778;28;19915;-76
2022/06/21 08:27:23;;;;;;;;;;;31.90;95.70;;;;;;5052366;28;20274;-78
2022/06/21 08:29:57;;;;;;;;;;;32.20;95.00;;;;;;5050221;28;19920;-76
2022/06/21 08:32:33;;;;;;;;;;;32.30;94.60;;;;;;5051762;28;19905;-76
2022/06/21 08:35:02;;;;;;;;;;;32.50;94.20;;;;;;5051790;28;20382;-77
2022/06/21 08:37:28;;;;;;;;;;;32.70;93.70;;;;;;5050604;28;19905;-77
2022/06/21 08:39:57;;;;;;;;;;;32.90;93.40;;;;;;5051689;28;19904;-76
2022/06/21 08:42:37;;;;;;;;;;;33.10;93.30;;;;;;5050680;28;19905;-78
2022/06/21 08:45:40;;;;;;;;;;;33.50;92.80;;;;;;5050717;28;19912;-77
2022/06/21 08:48:05;;;;;;;;;;;33.60;92.60;;;;;;5053009;28;20401;-79
2022/06/21 08:50:40;;;;;;;;;;;33.70;92.30;;;;;;5054954;28;19913;-77
2022/06/21 08:53:26;;;;;;;;;;;33.80;92.50;;;;;;5055926;28;19962;-77
2022/06/21 08:56:13;;;;;;;;;;;33.90;92.50;;;;;;5054358;28;19928;-79
2022/06/21 08:58:53;;;;;;;;;;;34.20;92.50;;;;;;5053550;28;19905;-80
2022/06/21 09:01:31;;;;;;;;;;;34.20;92.10;;;;;;5054043;28;19909;-79
2022/06/21 09:03:56;;;;;;;;;;;34.10;92.10;;;;;;5054965;28;20396;-76
2022/06/21 09:06:31;;;;;;;;;;;34.10;92.10;;;;;;5054742;28;19943;-79
2022/06/21 09:09:15;;;;;;;;;;;33.90;92.30;;;;;;5055591;28;19905;-76
2022/06/21 09:11:57;;;;;;;;;;;33.60;92.70;;;;;;5055321;28;20290;-77
2022/06/21 09:14:29;;;;;;;;;;;33.50;93.00;;;;;;5054746;28;19931;-81
2022/06/21 09:17:19;;;;;;;;;;;33.70;92.60;;;;;;5055115;28;19905;-78
2022/06/21 09:19:45;;;;;;;;;;;33.80;92.60;;;;;;5054809;28;19956;-77
2022/06/21 09:22:30;;;;;;;;;;;33.90;92.50;;;;;;5055122;28;19951;-78
2022/06/21 09:25:06;;;;;;;;;;;34.20;92.20;;;;;;5054906;28;19905;-78
2022/06/21 09:27:34;;;;;;;;;;;34.30;91.90;;;;;;5054283;28;19992;-78
2022/06/21 09:30:00;;;;;;;;;;;34.30;92.00;;;;;;5055155;28;19995;-79
2022/06/21 09:32:28;;;;;;;;;;;34.50;92.40;;;;;;5054520;28;20038;-78
2022/06/21 09:34:57;;;;;;;;;;;34.30;92.80;;;;;;5054638;28;19938;-79
2022/06/21 09:37:22;;;;;;;;;;;34.10;92.90;;;;;;5054524;28;20276;-79
2022/06/21 09:40:06;;;;;;;;;;;34.40;92.90;;;;;;5053133;28;19911;-81
2022/06/21 09:42:32;;;;;;;;;;;34.50;92.90;;;;;;5054529;28;19905;-81
2022/06/21 09:45:00;;;;;;;;;;;34.40;92.40;;;;;;5051404;28;20113;-81
2022/06/21 09:47:26;;;;;;;;;;;34.20;92.20;;;;;;5040910;28;19905;-78
2022/06/21 09:49:55;;;;;;;;;;;34.00;92.30;;;;;;5043123;28;19913;-80
2022/06/21 09:52:33;;;;;;;;;;;33.90;92.50;;;;;;5044418;28;20042;-78
2022/06/21 09:55:05;;;;;;;;;;;33.90;92.30;;;;;;5043948;28;19912;-78
2022/06/21 09:57:42;;;;;;;;;;;34.00;92.20;;;;;;5042552;28;20378;-79
2022/06/21 10:00:08;;;;;;;;;;;34.00;92.20;;;;;;5041045;28;19904;-78
2022/06/21 10:02:54;;;;;;;;;;;33.80;92.50;;;;;;5041134;28;20351;-78
2022/06/21 10:05:19;;;;;;;;;;;33.20;93.10;;;;;;5043996;28;20381;-80
2022/06/21 10:08:00;;;;;;;;;;;32.90;93.30;;;;;;5041521;28;19905;-81
2022/06/21 10:10:45;;;;;;;;;;;33.00;93.60;;;;;;5041682;28;19942;-79
2022/06/21 10:13:10;;;;;;;;;;;33.00;93.60;;;;;;5041072;28;19909;-78
2022/06/21 10:15:39;;;;;;;;;;;33.20;93.50;;;;;;5041977;28;19909;-80
2022/06/21 10:18:23;;;;;;;;;;;33.00;93.70;;;;;;5043720;28;19905;-83
2022/06/21 10:20:57;;;;;;;;;;;32.90;93.70;;;;;;5040849;28;19912;-79
2022/06/21 10:23:49;;;;;;;;;;;32.90;93.60;;;;;;5041063;28;20394;-80
2022/06/21 10:26:14;;;;;;;;;;;32.70;93.90;;;;;;5033451;28;20347;-77
2022/06/21 10:28:56;;;;;;;;;;;32.50;93.90;;;;;;5053168;28;19912;-77
2022/06/21 10:31:25;;;;;;;;;;;32.50;93.80;;;;;;5053460;28;19920;-80
2022/06/21 10:34:09;;;;;;;;;;;32.50;93.40;;;;;;5053175;28;20274;-80
2022/06/21 10:36:35;;;;;;;;;;;32.50;93.30;;;;;;5052367;28;19904;-77
2022/06/21 10:39:12;;;;;;;;;;;32.40;93.70;;;;;;5052591;28;19904;-80
2022/06/21 10:42:46;;;;;;;;;;;32.30;93.90;;;;;;5052528;28;20381;-78
2022/06/21 10:44:36;;;;;;;;;;;32.40;93.80;;;;;;5052238;28;19911;-80
2022/06/21 10:47:04;;;;;;;;;;;32.40;93.80;;;;;;5051832;28;19911;-78
2022/06/21 10:49:33;;;;;;;;;;;32.60;93.60;;;;;;5052039;28;20066;-78
2022/06/21 10:51:58;;;;;;;;;;;32.90;93.50;;;;;;5052459;28;20329;-81
2022/06/21 10:54:45;;;;;;;;;;;32.80;93.60;;;;;;5052422;28;19919;-80
2022/06/21 10:57:14;;;;;;;;;;;32.70;94.00;;;;;;5050398;28;19924;-81
2022/06/21 11:02:36;;;;;;;;;;;32.50;94.20;;;;;;5051977;28;19911;-77
2022/06/21 11:05:04;;;;;;;;;;;32.40;94.50;;;;;;5051997;28;19905;-76
2022/06/21 11:07:36;;;;;;;;;;;32.40;94.50;;;;;;5052261;28;19939;-78
2022/06/21 11:10:05;;;;;;;;;;;32.20;94.60;;;;;;5050214;28;20367;-79
2022/06/21 11:15:39;;;;;;;;;;;32.30;95.00;;;;;;5052707;28;19950;-78
2022/06/21 11:18:13;;;;;;;;;;;32.50;94.40;;;;;;5052135;28;19909;-77
2022/06/21 11:21:17;;;;;;;;;;;32.60;94.50;;;;;;5051850;28;20359;-77
2022/06/21 11:23:49;;;;;;;;;;;32.60;94.60;;;;;;5049486;28;20351;-78
2022/06/21 11:26:35;;;;;;;;;;;32.60;94.70;;;;;;5049391;28;19915;-78
2022/06/21 11:29:19;;;;;;;;;;;32.30;95.10;;;;;;5050818;28;19958;-79
2022/06/21 11:31:55;;;;;;;;;;;32.30;96.00;;;;;;5051428;28;19924;-78
2022/06/21 11:34:40;;;;;;;;;;;32.10;97.40;;;;;;5049621;28;19997;-78
2022/06/21 11:37:08;;;;;;;;;;;31.90;97.50;;;;;;5050901;28;19954;-77
2022/06/21 11:39:36;;;;;;;;;;;31.90;98.00;;;;;;5050624;28;19921;-78
2022/06/21 11:42:13;;;;;;;;;;;31.90;98.10;;;;;;5051703;28;19915;-78
2022/06/21 11:44:52;;;;;;;;;;;32.00;99.10;;;;;;5051621;28;19912;-79
2022/06/21 11:47:34;;;;;;;;;;;32.00;99.60;;;;;;5051642;28;19919;-78
2022/06/21 11:50:16;;;;;;;;;;;32.00;99.70;;;;;;5047746;28;19920;-78
2022/06/21 11:53:00;;;;;;;;;;;32.00;99.70;;;;;;5051470;28;19991;-78
2022/06/21 11:55:31;;;;;;;;;;;32.10;99.60;;;;;;5051609;28;19923;-78
2022/06/21 11:58:15;;;;;;;;;;;32.30;99.90;;;;;;5051524;28;19949;-77
2022/06/21 12:00:46;;;;;;;;;;;32.30;99.90;;;;;;5051255;28;19909;-78
2022/06/21 12:03:17;;;;;;;;;;;32.40;99.90;;;;;;5051037;28;19919;-77
2022/06/21 12:05:42;;;;;;;;;;;32.40;99.90;;;;;;5051429;28;19963;-79
2022/06/21 12:08:11;;;;;;;;;;;32.30;99.90;;;;;;5051022;28;19952;-77
2022/06/21 12:10:42;;;;;;;;;;;32.40;99.90;;;;;;5051308;28;19974;-79
2022/06/21 12:13:43;;;;;;;;;;;32.30;99.90;;;;;;5051375;28;20429;-79
2022/06/21 12:16:16;;;;;;;;;;;32.10;99.90;;;;;;5032365;28;19936;-78
2022/06/21 12:18:45;;;;;;;;;;;32.20;99.90;;;;;;5046703;28;19936;-79
2022/06/21 12:21:13;;;;;;;;;;;32.20;99.90;;;;;;5051614;28;19991;-78
2022/06/21 12:23:44;;;;;;;;;;;32.20;99.90;;;;;;5054050;28;19909;-79
2022/06/21 12:26:15;;;;;;;;;;;32.20;99.90;;;;;;5054024;28;20286;-78
2022/06/21 12:28:41;;;;;;;;;;;32.30;99.90;;;;;;5053281;28;19995;-76
2022/06/21 12:31:21;;;;;;;;;;;32.20;99.90;;;;;;5053520;28;20359;-77
2022/06/21 12:33:49;;;;;;;;;;;32.10;99.90;;;;;;5051380;28;19948;-78
2022/06/21 12:36:22;;;;;;;;;;;32.00;99.90;;;;;;5051921;28;19912;-78
2022/06/21 12:39:11;;;;;;;;;;;32.00;99.90;;;;;;5051378;28;20529;-78
2022/06/21 12:41:52;;;;;;;;;;;32.00;99.90;;;;;;5031534;28;19905;-78
2022/06/21 12:44:38;;;;;;;;;;;32.00;99.90;;;;;;5050745;28;20278;-78
2022/06/21 12:47:06;;;;;;;;;;;31.90;99.90;;;;;;5049037;28;19992;-77
2022/06/21 12:49:56;;;;;;;;;;;32.00;99.90;;;;;;5045564;28;19912;-79
2022/06/21 12:52:45;;;;;;;;;;;32.00;99.90;;;;;;5038621;28;19911;-79
2022/06/21 12:55:16;;;;;;;;;;;31.70;99.90;;;;;;5039705;28;19921;-79
2022/06/21 12:57:55;;;;;;;;;;;31.70;99.90;;;;;;5050898;28;19917;-77
2022/06/21 13:00:30;;;;;;;;;;;31.80;99.90;;;;;;5047293;28;19909;-77
2022/06/21 13:03:05;;;;;;;;;;;31.90;99.90;;;;;;5040895;28;19909;-77
2022/06/21 13:05:39;;;;;;;;;;;32.00;99.90;;;;;;5038159;28;19905;-79
2022/06/21 13:08:10;;;;;;;;;;;31.90;99.90;;;;;;5046396;28;20375;-78
2022/06/21 13:10:59;;;;;;;;;;;31.90;99.90;;;;;;5049476;28;19912;-78
2022/06/21 13:13:43;;;;;;;;;;;32.00;99.90;;;;;;5056045;28;20375;-78
2022/06/21 13:16:24;;;;;;;;;;;31.90;99.90;;;;;;5052528;28;19927;-79
2022/06/21 13:19:11;;;;;;;;;;;31.80;99.90;;;;;;5051854;28;19930;-78
2022/06/21 13:21:46;;;;;;;;;;;31.70;99.90;;;;;;5042580;28;19958;-76
2022/06/21 13:24:28;;;;;;;;;;;31.70;99.90;;;;;;5047713;28;19909;-76
2022/06/21 13:26:58;;;;;;;;;;;31.70;99.90;;;;;;5043610;28;19905;-75
2022/06/21 13:29:28;;;;;;;;;;;31.80;99.90;;;;;;5053781;28;19981;-77
2022/06/21 13:31:57;;;;;;;;;;;31.90;99.90;;;;;;5053782;28;19908;-77
2022/06/21 13:34:28;;;;;;;;;;;31.90;99.90;;;;;;5053837;28;19905;-77
2022/06/21 13:36:55;;;;;;;;;;;31.90;99.90;;;;;;5053288;28;20363;-77
2022/06/21 13:39:36;;;;;;;;;;;32.10;99.90;;;;;;5052901;28;19911;-77
2022/06/21 13:44:54;;;;;;;;;;;32.10;99.90;;;;;;5042431;28;19935;-78
2022/06/21 13:47:26;;;;;;;;;;;31.90;99.90;;;;;;5047328;28;19904;-78
2022/06/21 13:50:14;;;;;;;;;;;31.90;99.90;;;;;;5038537;28;19956;-77
2022/06/21 13:52:40;;;;;;;;;;;31.90;99.90;;;;;;5041786;28;19912;-78
2022/06/21 13:55:15;;;;;;;;;;;31.90;99.90;;;;;;5052079;28;19912;-77
2022/06/21 13:57:50;;;;;;;;;;;31.80;99.90;;;;;;5052663;28;20347;-76
2022/06/21 14:00:16;;;;;;;;;;;31.80;99.90;;;;;;5053123;28;19939;-77
2022/06/21 14:03:03;;;;;;;;;;;31.80;99.90;;;;;;5053301;28;19904;-76
2022/06/21 14:05:36;;;;;;;;;;;31.70;99.90;;;;;;5052333;28;19909;-77
2022/06/21 14:08:22;;;;;;;;;;;31.70;99.90;;;;;;5049910;28;20478;-78
2022/06/21 14:10:51;;;;;;;;;;;31.80;99.90;;;;;;5052216;28;19919;-76
2022/06/21 14:13:39;;;;;;;;;;;31.80;99.90;;;;;;5051633;28;19905;-77
2022/06/21 14:16:14;;;;;;;;;;;31.70;99.90;;;;;;5041898;28;19957;-77
2022/06/21 14:18:47;;;;;;;;;;;31.50;99.90;;;;;;5039032;28;20006;-79
2022/06/21 14:21:20;;;;;;;;;;;31.40;99.90;;;;;;5045233;28;19970;-78
2022/06/21 14:23:48;;;;;;;;;;;31.30;99.90;;;;;;5043555;28;19909;-78
2022/06/21 14:26:16;;;;;;;;;;;31.20;99.90;;;;;;5044231;28;20050;-77
2022/06/21 14:28:51;;;;;;;;;;;31.10;99.90;;;;;;5044020;28;19951;-76
2022/06/21 14:31:19;;;;;;;;;;;31.10;99.90;;;;;;5044719;28;19913;-76
2022/06/21 14:33:51;;;;;;;;;;;31.10;99.90;;;;;;5032463;28;19905;-76
2022/06/21 14:36:27;;;;;;;;;;;31.20;99.90;;;;;;5033054;28;19905;-76
2022/06/21 14:39:01;;;;;;;;;;;31.20;99.90;;;;;;5032702;28;20272;-78
2022/06/21 14:41:27;;;;;;;;;;;31.20;99.90;;;;;;5031743;28;19915;-77
2022/06/21 14:43:57;;;;;;;;;;;31.10;99.90;;;;;;5048744;28;19992;-77
2022/06/21 14:46:29;;;;;;;;;;;31.00;99.90;;;;;;5051202;28;19919;-78
2022/06/21 14:48:58;;;;;;;;;;;31.00;99.90;;;;;;5052495;28;20304;-77
2022/06/21 14:51:48;;;;;;;;;;;30.80;99.90;;;;;;5052881;28;20378;-78
2022/06/21 14:54:32;;;;;;;;;;;30.70;99.90;;;;;;5032969;28;19905;-77
2022/06/21 14:57:08;;;;;;;;;;;30.30;99.90;;;;;;5050121;28;19917;-79
2022/06/21 14:59:43;;;;;;;;;;;30.20;99.90;;;;;;5053187;28;20370;-80
2022/06/21 15:02:08;;;;;;;;;;;30.30;99.90;;;;;;5047434;28;19912;-80
2022/06/21 15:04:49;;;;;;;;;;;30.40;99.90;;;;;;5052035;28;19927;-79